CPX621 Details

Departure: Yeager Airport (KCRW)
Arrival: Washington Dulles International Airport (KIAD)
Route: CSN270073 DOCCS DOCCS3


Current Weather Information
KCRW 230654Z 21005KT 10SM BKN070 BKN080 09/05 A3000 RMK AO2 RAE02 SLP155 P0000 T00940050
KIAD 230727Z 00000KT 10SM CLR 07/07 A2991 RMK AO2 T00720067 $